Puerto Banus, Marbella

>

This is an optional block (switch it off / on) in the settings - file ($SITE['banners'] = false;)

You can display ads, any other important text or photo’s using text / html or PHP code.

You can place one or more at the top and or bottom and it can all be different for content / size .



Meteosat more information blitzortung!


Radar lluvias  rain snow radar


Visita nuestra red de sitios de meteo:

Documentation for the template used

MeteoibericaRed estaciones Meteorologicas

MeteoclimaticRed estaciones Meteorologicas



Sin Advertencias climatologicas .En este momento tenemos Nivel Verde.    No hay Alarmas

Informes METAR proximidad

   
EBAW - Antwerp
Actualización: 23-04-2018 20:50
Claros  
Claros  
   Viento: WSW 18.5 km/h
Viento: WSW 18.5 km/h
Temperatura: 14°C
Punto de rocío: 6°C
Humedad: 59%
Baromètro: 1017 hPa
Visibilidad: More than 10 km
detalles de la nube: Claros
EBAW 231850Z 24010KT 210V270 CAVOK 14/06 Q1017 NOSIG
EBLG - Liège
Actualización: 23-04-2018 20:50
Claros  
Claros  
   Viento: WSW 14.8 km/h
Viento: WSW 14.8 km/h
Temperatura: 13°C
Punto de rocío: 7°C
Humedad: 67%
Baromètro: 1017 hPa
Visibilidad: More than 10 km
detalles de la nube: Claros
EBLG 231850Z 25008KT CAVOK 13/07 Q1017 NOSIG
EBCV - Mons/Bergen
Actualización: 23-04-2018 20:25
Claros  
Claros  
   Viento: WSW 18.5 km/h
Viento: WSW 18.5 km/h
Temperatura: 12°C
Punto de rocío: 6°C
Humedad: 67%
Baromètro: 1018 hPa
Nublado: Claros
Visibilidad: More than 10 km
detalles de la nube: Claros
EBCV 231825Z AUTO 25010KT 9999 NCD 12/06 Q1018 BLU
EHBK - Maastricht
Actualización: 23-04-2018 20:55
Parcialmente Nublado  
Parcialmente Nublado  
   Viento: WSW 9.3 km/h
Viento: WSW 9.3 km/h
Temperatura: 15°C
Punto de rocío: 6°C
Humedad: 55%
Baromètro: 1016 hPa
Nublado: Parcialmente Nublado
Visibilidad: More than 10 km
detalles de la nube: Parcialmente Nublado
EHBK 231855Z AUTO 25005KT 200V300 9999 NSC 15/06 Q1016 NOSIG
ELLX - Luxemburg
Actualización: 23-04-2018 20:50
Nubes dispersas  
Nubes dispersas  
   Viento: West 16.7 km/h
Viento: West 16.7 km/h
Temperatura: 15°C
Punto de rocío: 8°C
Humedad: 63%
Baromètro: 1018 hPa
Nublado: Nubes dispersas
Visibilidad: More than 10 km
detalles de la nube: Nubes dispersas 4800 ft
ELLX 231850Z 26009KT 9999 FEW048 15/08 Q1018 NOSIG
EBOS - Oostende
Actualización: 23-04-2018 20:50
Nubes dispersas  
Nubes dispersas  
   Viento: SW 24.1 km/h
Viento: SW 24.1 km/h
Temperatura: 10°C
Térmica: 7°C
Punto de rocío: 6°C
Humedad: 76%
Baromètro: 1017 hPa
Nublado: Nubes dispersas
Visibilidad: More than 10 km
detalles de la nube: Nubes dispersas 3100 ft
EBOS 231850Z 22013KT 9999 FEW031 10/06 Q1017 NOSIG

Guión original por  Saratoga-weather.org Adaptado para la plantilla por  Weerstation Leuven

Usted encontrará nuestra información del tiempo también en:

Weather Underground

Iberian Peninsula Weather Network